Decoded Metar for CYXY (WHITEHORSE in YT, CANADA) (IATA:YXY) | Meteo·Mobile Aviation Weather
aviador You're here:

CYXY Decoded Metar

WHITEHORSE in YT, CANADA
Report Time2019-08-24 13:00:00
UTC Time2019-08-24 13:12:40
Flight Rules mvfr MVFR
Wind350° at 03 kt
W.Decomp.*RWY 31: 2.9 kt HW 0.8 kt RCW
RWY 01: 2.1 kt HW 2.1 kt LCW
Visibility9999 m
Phenomena:Light Rain
Clouds:Few 005 Hf
Broken 015 Hf
Overcast 050 Hf
Ceiling1,500 ft
Temp07°C (ISA -3)
Dew Point07°C (100% RH)
AAT5.2°C
QNH1001 hPa
Density Alt2,451 ft
Elevation2,306 ft
Report Wrong Elevation
Raw Report
CYXY 241300Z 35003KT 15SM -RA FEW005 BKN015 OVC050 07/07 A2956 RMK
SF2SC3SC3 SLP030 DENSITY ALT 2400FT=

Extra information for CYXY:More info

Metar Taf Metar & Taf Last 4 Metars F.Rules Stats Wind Profile Meteogram Temp Stats Airport Information Weather charts Add Link Nearby VenuesMetar ALERT Operation Metar Decoded Social comments